Time;durP1;ratioP1;P1;durP2;ratioP2;P2;SDS_P1;SDS_P2;PMS_P1;PMS_P2;Temp;Humidity;BMP_temperature;BMP_pressure;BME280_temperature;BME280_humidity;BME280_pressure;Samples;Min_cycle;Max_cycle;Signal;HPM_P1;HPM_P2
2021/08/13 00:00:24;;;;;;;;;;;25.90;53.30;;;;;;1580452;73;1177;-71
2021/08/13 00:02:26;;;;;;;;;;;25.80;53.20;;;;;;1578458;73;649;-71
2021/08/13 00:04:28;;;;;;;;;;;25.90;53.20;;;;;;1576751;73;645;-71
2021/08/13 00:06:30;;;;;;;;;;;25.80;53.20;;;;;;1579679;73;794;-71
2021/08/13 00:08:32;;;;;;;;;;;25.90;53.30;;;;;;1582966;74;783;-71
2021/08/13 00:10:34;;;;;;;;;;;25.80;53.30;;;;;;1574242;74;1137;-71
2021/08/13 00:12:36;;;;;;;;;;;25.90;53.40;;;;;;1576438;73;722;-71
2021/08/13 00:14:38;;;;;;;;;;;25.80;53.40;;;;;;1580198;74;658;-70
2021/08/13 00:16:40;;;;;;;;;;;25.80;53.40;;;;;;1578218;73;1934;-70
2021/08/13 00:18:42;;;;;;;;;;;25.80;53.40;;;;;;1574577;73;732;-70
2021/08/13 00:20:44;;;;;;;;;;;25.90;53.40;;;;;;1576147;73;1130;-70
2021/08/13 00:22:45;;;;;;;;;;;25.80;53.40;;;;;;1580838;73;787;-70
2021/08/13 00:24:47;;;;;;;;;;;25.90;53.40;;;;;;1578952;73;611;-70
2021/08/13 00:26:49;;;;;;;;;;;25.80;53.50;;;;;;1583966;73;748;-70
2021/08/13 00:28:51;;;;;;;;;;;25.80;53.40;;;;;;1571604;73;887;-70
2021/08/13 00:30:53;;;;;;;;;;;25.90;53.40;;;;;;1585963;73;1090;-69
2021/08/13 00:32:55;;;;;;;;;;;25.80;53.50;;;;;;1584592;73;803;-70
2021/08/13 00:34:57;;;;;;;;;;;25.80;53.50;;;;;;1592394;74;1941;-70
2021/08/13 00:36:59;;;;;;;;;;;25.80;53.40;;;;;;1588036;74;719;-70
2021/08/13 00:39:02;;;;;;;;;;;25.80;53.50;;;;;;1593702;73;786;-70
2021/08/13 00:41:04;;;;;;;;;;;25.80;53.60;;;;;;1578260;73;1083;-70
2021/08/13 00:43:06;;;;;;;;;;;25.80;53.60;;;;;;1584658;73;764;-69
2021/08/13 00:45:08;;;;;;;;;;;25.80;53.70;;;;;;1592268;74;724;-70
2021/08/13 00:47:10;;;;;;;;;;;25.80;53.60;;;;;;1591654;74;727;-70
2021/08/13 00:49:12;;;;;;;;;;;25.80;53.70;;;;;;1580356;73;1190;-70
2021/08/13 00:51:14;;;;;;;;;;;25.80;53.70;;;;;;1588936;73;704;-71
2021/08/13 00:53:16;;;;;;;;;;;25.80;53.70;;;;;;1587329;73;741;-70
2021/08/13 00:55:19;;;;;;;;;;;25.80;53.60;;;;;;1582586;73;1936;-73
2021/08/13 00:57:21;;;;;;;;;;;25.80;53.70;;;;;;1577947;73;793;-71
2021/08/13 00:59:23;;;;;;;;;;;25.80;53.70;;;;;;1577873;73;1141;-71
2021/08/13 01:01:25;;;;;;;;;;;25.80;53.60;;;;;;1572757;73;827;-70
2021/08/13 01:03:28;;;;;;;;;;;25.80;53.60;;;;;;1572522;73;867;-70
2021/08/13 01:05:29;;;;;;;;;;;25.80;53.50;;;;;;1576448;73;735;-71
2021/08/13 01:07:31;;;;;;;;;;;25.80;53.50;;;;;;1577756;73;724;-71
2021/08/13 01:09:33;;;;;;;;;;;25.80;53.50;;;;;;1575224;73;1096;-71
2021/08/13 01:11:40;;;;;;;;;;;25.80;53.50;;;;;;1577602;73;761;-71
2021/08/13 01:13:43;;;;;;;;;;;25.80;53.50;;;;;;1585274;73;2024;-71
2021/08/13 01:15:47;;;;;;;;;;;25.80;53.50;;;;;;1580221;73;1929;-70
2021/08/13 01:17:50;;;;;;;;;;;25.80;53.50;;;;;;1579430;73;1811;-70
2021/08/13 01:20:08;;;;;;;;;;;25.80;53.40;;;;;;1582506;73;1159;-70
2021/08/13 01:22:11;;;;;;;;;;;25.80;53.40;;;;;;1578651;73;808;-70
2021/08/13 01:24:16;;;;;;;;;;;25.70;53.40;;;;;;1577528;73;699;-70
2021/08/13 01:26:19;;;;;;;;;;;25.80;53.40;;;;;;1583898;74;806;-70
2021/08/13 01:28:25;;;;;;;;;;;25.80;53.40;;;;;;1582810;73;788;-70
2021/08/13 01:30:27;;;;;;;;;;;25.80;53.40;;;;;;1582667;73;1941;-70
2021/08/13 01:32:33;;;;;;;;;;;25.80;53.40;;;;;;1580275;73;773;-70
2021/08/13 01:34:35;;;;;;;;;;;25.80;53.40;;;;;;1581615;73;909;-70
2021/08/13 01:36:37;;;;;;;;;;;25.70;53.40;;;;;;1580768;73;1950;-70
2021/08/13 01:38:38;;;;;;;;;;;25.70;53.40;;;;;;1574444;73;768;-70
2021/08/13 01:40:42;;;;;;;;;;;25.70;53.30;;;;;;1578432;73;1139;-70
2021/08/13 01:42:44;;;;;;;;;;;25.80;53.30;;;;;;1575943;73;789;-71
2021/08/13 01:44:46;;;;;;;;;;;25.70;53.30;;;;;;1580196;73;769;-71
2021/08/13 01:46:48;;;;;;;;;;;25.80;53.30;;;;;;1575481;73;895;-71
2021/08/13 01:48:49;;;;;;;;;;;25.80;53.30;;;;;;1573111;74;733;-70
2021/08/13 01:50:51;;;;;;;;;;;25.70;53.30;;;;;;1577429;73;1176;-71
2021/08/13 01:52:54;;;;;;;;;;;25.80;53.20;;;;;;1586546;73;735;-71
2021/08/13 01:54:56;;;;;;;;;;;25.80;53.30;;;;;;1572446;73;766;-70
2021/08/13 01:56:57;;;;;;;;;;;25.70;53.20;;;;;;1579821;73;1942;-71
2021/08/13 01:59:00;;;;;;;;;;;25.80;53.30;;;;;;1576363;73;802;-71
2021/08/13 02:01:02;;;;;;;;;;;25.70;53.30;;;;;;1575254;73;1226;-71
2021/08/13 02:03:03;;;;;;;;;;;25.70;53.30;;;;;;1578111;73;809;-71
2021/08/13 02:05:05;;;;;;;;;;;25.80;53.30;;;;;;1577507;73;818;-72
2021/08/13 02:07:08;;;;;;;;;;;25.70;53.30;;;;;;1576571;73;738;-72
2021/08/13 02:09:10;;;;;;;;;;;25.80;53.40;;;;;;1584953;73;785;-71
2021/08/13 02:11:12;;;;;;;;;;;25.70;53.40;;;;;;1582866;73;755;-72
2021/08/13 02:13:14;;;;;;;;;;;25.70;53.40;;;;;;1580048;73;785;-72
2021/08/13 02:15:16;;;;;;;;;;;25.70;53.30;;;;;;1576643;73;752;-71
2021/08/13 02:17:18;;;;;;;;;;;25.80;53.30;;;;;;1582329;73;1919;-71
2021/08/13 02:19:27;;;;;;;;;;;25.80;53.30;;;;;;1585589;73;1137;-71
2021/08/13 02:21:29;;;;;;;;;;;25.70;53.30;;;;;;1585262;73;739;-72
2021/08/13 02:23:31;;;;;;;;;;;25.70;53.30;;;;;;1588973;73;785;-72
2021/08/13 02:25:33;;;;;;;;;;;25.70;53.20;;;;;;1583971;73;775;-73
2021/08/13 02:27:35;;;;;;;;;;;25.80;53.30;;;;;;1587326;73;779;-72
2021/08/13 02:29:37;;;;;;;;;;;25.70;53.30;;;;;;1580058;74;1149;-72
2021/08/13 02:31:39;;;;;;;;;;;25.80;53.30;;;;;;1580078;74;806;-72
2021/08/13 02:33:40;;;;;;;;;;;25.70;53.20;;;;;;1574904;73;740;-73
2021/08/13 02:35:44;;;;;;;;;;;25.70;53.20;;;;;;1584022;73;1942;-71
2021/08/13 02:37:49;;;;;;;;;;;25.70;53.10;;;;;;1574120;73;809;-71
2021/08/13 02:39:55;;;;;;;;;;;25.70;53.10;;;;;;1579804;73;1081;-71
2021/08/13 02:41:57;;;;;;;;;;;25.70;53.10;;;;;;1576912;73;728;-71
2021/08/13 02:44:00;;;;;;;;;;;25.70;53.10;;;;;;1577029;74;795;-71
2021/08/13 02:46:02;;;;;;;;;;;25.80;53.10;;;;;;1584334;73;670;-71
2021/08/13 02:48:04;;;;;;;;;;;25.70;53.10;;;;;;1577959;73;791;-71
2021/08/13 02:50:07;;;;;;;;;;;25.70;53.10;;;;;;1576300;73;1094;-71
2021/08/13 02:52:09;;;;;;;;;;;25.80;53.00;;;;;;1583866;74;828;-71
2021/08/13 02:54:15;;;;;;;;;;;25.70;53.00;;;;;;1583509;73;774;-71
2021/08/13 02:56:18;;;;;;;;;;;25.70;53.00;;;;;;1580300;73;1932;-71
2021/08/13 02:58:20;;;;;;;;;;;25.70;52.90;;;;;;1583953;74;772;-71
2021/08/13 03:00:22;;;;;;;;;;;25.70;53.00;;;;;;1578450;73;1245;-71
2021/08/13 03:02:24;;;;;;;;;;;25.70;53.00;;;;;;1571632;73;760;-70
2021/08/13 03:04:27;;;;;;;;;;;25.70;53.00;;;;;;1575200;73;786;-70
2021/08/13 03:06:31;;;;;;;;;;;25.70;52.90;;;;;;1572692;73;905;-70
2021/08/13 03:08:32;;;;;;;;;;;25.70;52.90;;;;;;1574610;73;762;-70
2021/08/13 03:10:34;;;;;;;;;;;25.70;52.90;;;;;;1576069;74;1143;-70
2021/08/13 03:12:37;;;;;;;;;;;25.70;52.90;;;;;;1570271;73;818;-70
2021/08/13 03:14:39;;;;;;;;;;;25.70;52.90;;;;;;1572661;73;733;-70
2021/08/13 03:16:41;;;;;;;;;;;25.70;52.90;;;;;;1575669;73;1922;-74
2021/08/13 03:18:43;;;;;;;;;;;25.70;52.90;;;;;;1587964;73;811;-75
2021/08/13 03:20:45;;;;;;;;;;;25.70;53.00;;;;;;1594255;73;1152;-76
2021/08/13 03:22:47;;;;;;;;;;;25.70;52.90;;;;;;1589167;73;848;-74
2021/08/13 03:24:49;;;;;;;;;;;25.70;52.90;;;;;;1591099;73;722;-75
2021/08/13 03:26:51;;;;;;;;;;;25.70;52.90;;;;;;1586193;73;760;-74
2021/08/13 03:28:52;;;;;;;;;;;25.70;52.90;;;;;;1588962;73;766;-75
2021/08/13 03:30:54;;;;;;;;;;;25.70;53.00;;;;;;1589468;73;1179;-73
2021/08/13 03:32:56;;;;;;;;;;;25.70;53.00;;;;;;1592040;73;716;-74
2021/08/13 03:34:58;;;;;;;;;;;25.70;53.00;;;;;;1581749;73;680;-76
2021/08/13 03:37:01;;;;;;;;;;;25.70;53.10;;;;;;1580482;73;1934;-77
2021/08/13 03:39:04;;;;;;;;;;;25.70;53.10;;;;;;1579210;73;742;-75
2021/08/13 03:41:06;;;;;;;;;;;25.70;53.10;;;;;;1587247;73;1422;-75
2021/08/13 03:43:08;;;;;;;;;;;25.70;53.10;;;;;;1575238;73;831;-75
2021/08/13 03:45:10;;;;;;;;;;;25.70;53.10;;;;;;1580061;73;823;-75
2021/08/13 03:47:12;;;;;;;;;;;25.70;53.00;;;;;;1583513;73;708;-74
2021/08/13 03:49:14;;;;;;;;;;;25.70;53.00;;;;;;1589003;73;1160;-74
2021/08/13 03:51:16;;;;;;;;;;;25.70;53.10;;;;;;1584015;73;689;-74
2021/08/13 03:53:18;;;;;;;;;;;25.70;53.10;;;;;;1583495;73;726;-75
2021/08/13 03:55:20;;;;;;;;;;;25.80;53.10;;;;;;1572249;73;759;-74
2021/08/13 03:57:21;;;;;;;;;;;25.70;53.00;;;;;;1582498;73;1943;-75
2021/08/13 03:59:23;;;;;;;;;;;25.80;53.00;;;;;;1589147;73;1183;-74
2021/08/13 04:01:25;;;;;;;;;;;25.70;52.90;;;;;;1587580;73;738;-72
2021/08/13 04:03:27;;;;;;;;;;;25.70;52.90;;;;;;1590604;73;733;-72
2021/08/13 04:05:30;;;;;;;;;;;25.70;52.90;;;;;;1588238;73;661;-74
2021/08/13 04:07:32;;;;;;;;;;;25.70;52.90;;;;;;1592061;74;770;-74
2021/08/13 04:09:34;;;;;;;;;;;25.70;52.90;;;;;;1578461;73;1193;-74
2021/08/13 04:11:35;;;;;;;;;;;25.70;53.00;;;;;;1592842;73;789;-74
2021/08/13 04:13:37;;;;;;;;;;;25.70;52.90;;;;;;1582814;73;683;-73
2021/08/13 04:15:40;;;;;;;;;;;25.70;52.90;;;;;;1591187;73;733;-76
2021/08/13 04:17:42;;;;;;;;;;;25.80;52.90;;;;;;1585634;73;1905;-76
2021/08/13 04:19:44;;;;;;;;;;;25.70;52.90;;;;;;1583700;73;1137;-75
2021/08/13 04:21:45;;;;;;;;;;;25.70;52.90;;;;;;1596550;73;1046;-74
2021/08/13 04:23:47;;;;;;;;;;;25.70;52.90;;;;;;1586790;73;898;-73
2021/08/13 04:25:49;;;;;;;;;;;25.70;53.00;;;;;;1586324;73;661;-74
2021/08/13 04:27:51;;;;;;;;;;;25.70;53.00;;;;;;1589938;73;691;-74
2021/08/13 04:29:53;;;;;;;;;;;25.70;53.10;;;;;;1573987;73;1188;-73
2021/08/13 04:31:55;;;;;;;;;;;25.70;53.10;;;;;;1590826;73;692;-74
2021/08/13 04:33:57;;;;;;;;;;;25.70;53.10;;;;;;1592907;73;716;-73
2021/08/13 04:35:59;;;;;;;;;;;25.70;53.10;;;;;;1583669;73;830;-75
2021/08/13 04:38:01;;;;;;;;;;;25.70;53.10;;;;;;1580815;73;1921;-75
2021/08/13 04:40:04;;;;;;;;;;;25.70;53.10;;;;;;1576753;73;1167;-75
2021/08/13 04:42:05;;;;;;;;;;;25.70;53.10;;;;;;1586277;73;718;-75
2021/08/13 04:44:07;;;;;;;;;;;25.70;53.10;;;;;;1594526;73;745;-73
2021/08/13 04:46:09;;;;;;;;;;;25.70;53.10;;;;;;1582525;73;776;-75
2021/08/13 04:48:11;;;;;;;;;;;25.70;53.10;;;;;;1590349;73;717;-73
2021/08/13 04:50:13;;;;;;;;;;;25.70;53.10;;;;;;1583419;73;1176;-73
2021/08/13 04:52:16;;;;;;;;;;;25.70;53.10;;;;;;1583719;73;791;-76
2021/08/13 04:54:18;;;;;;;;;;;25.70;53.10;;;;;;1576321;73;743;-74
2021/08/13 04:56:20;;;;;;;;;;;25.70;53.10;;;;;;1580879;73;819;-74
2021/08/13 04:58:22;;;;;;;;;;;25.70;53.10;;;;;;1577596;74;1932;-75
2021/08/13 05:00:24;;;;;;;;;;;25.70;53.10;;;;;;1586556;73;1156;-74
2021/08/13 05:02:26;;;;;;;;;;;25.70;53.20;;;;;;1581963;74;713;-74
2021/08/13 05:04:28;;;;;;;;;;;25.70;53.20;;;;;;1584426;73;657;-74
2021/08/13 05:06:30;;;;;;;;;;;25.70;53.20;;;;;;1585165;73;760;-73
2021/08/13 05:08:32;;;;;;;;;;;25.70;53.30;;;;;;1584801;73;768;-73
2021/08/13 05:10:34;;;;;;;;;;;25.70;53.20;;;;;;1583443;74;1129;-75
2021/08/13 05:12:36;;;;;;;;;;;25.70;53.20;;;;;;1581021;74;759;-75
2021/08/13 05:14:38;;;;;;;;;;;25.80;53.20;;;;;;1579565;73;729;-75
2021/08/13 05:16:40;;;;;;;;;;;25.70;53.20;;;;;;1578596;73;1942;-75
2021/08/13 05:18:42;;;;;;;;;;;25.70;53.20;;;;;;1579480;73;635;-74
2021/08/13 05:20:44;;;;;;;;;;;25.70;53.20;;;;;;1582404;73;1137;-75
2021/08/13 05:22:45;;;;;;;;;;;25.60;53.20;;;;;;1574843;73;770;-75
2021/08/13 05:24:47;;;;;;;;;;;25.70;53.30;;;;;;1581633;73;739;-75
2021/08/13 05:26:49;;;;;;;;;;;25.60;53.30;;;;;;1576395;73;702;-73
2021/08/13 05:28:51;;;;;;;;;;;25.70;53.30;;;;;;1574312;73;804;-73
2021/08/13 05:30:53;;;;;;;;;;;25.70;53.30;;;;;;1573072;73;1122;-74
2021/08/13 05:32:55;;;;;;;;;;;25.70;53.30;;;;;;1581834;74;751;-72
2021/08/13 05:34:57;;;;;;;;;;;25.70;53.50;;;;;;1583182;74;731;-72
2021/08/13 05:36:59;;;;;;;;;;;25.70;53.40;;;;;;1568593;74;1950;-71
2021/08/13 05:39:01;;;;;;;;;;;25.70;53.30;;;;;;1572699;73;805;-70
2021/08/13 05:41:03;;;;;;;;;;;25.70;53.40;;;;;;1577874;73;1066;-71
2021/08/13 05:43:05;;;;;;;;;;;25.70;53.40;;;;;;1567917;74;632;-72
2021/08/13 05:45:08;;;;;;;;;;;25.70;53.40;;;;;;1574278;73;628;-74
2021/08/13 05:47:10;;;;;;;;;;;25.70;53.40;;;;;;1574979;74;699;-72
2021/08/13 05:49:15;;;;;;;;;;;25.70;53.40;;;;;;1569702;74;656;-71
2021/08/13 05:51:16;;;;;;;;;;;25.70;53.40;;;;;;1568568;74;834;-72
2021/08/13 05:53:18;;;;;;;;;;;25.70;53.40;;;;;;1569613;73;808;-72
2021/08/13 05:55:20;;;;;;;;;;;25.80;53.40;;;;;;1567028;73;732;-72
2021/08/13 05:57:22;;;;;;;;;;;25.70;53.40;;;;;;1573190;73;1934;-70
2021/08/13 05:59:24;;;;;;;;;;;25.80;53.40;;;;;;1588004;73;1131;-69
2021/08/13 06:01:26;;;;;;;;;;;25.70;53.50;;;;;;1580476;74;722;-68
2021/08/13 06:03:28;;;;;;;;;;;25.80;53.40;;;;;;1590113;74;813;-69
2021/08/13 06:05:30;;;;;;;;;;;25.80;53.50;;;;;;1596982;73;660;-72
2021/08/13 06:07:32;;;;;;;;;;;25.80;53.40;;;;;;1587004;73;741;-72
2021/08/13 06:09:33;;;;;;;;;;;25.80;53.40;;;;;;1587843;74;1135;-74
2021/08/13 06:11:35;;;;;;;;;;;25.80;53.40;;;;;;1580162;73;750;-74
2021/08/13 06:13:37;;;;;;;;;;;25.80;53.50;;;;;;1592633;73;751;-72
2021/08/13 06:15:39;;;;;;;;;;;25.70;53.50;;;;;;1595704;74;718;-74
2021/08/13 06:17:42;;;;;;;;;;;25.80;53.50;;;;;;1590401;73;1950;-73
2021/08/13 06:19:44;;;;;;;;;;;25.80;53.50;;;;;;1579481;73;1133;-74
2021/08/13 06:21:45;;;;;;;;;;;25.70;53.50;;;;;;1586331;73;751;-72
2021/08/13 06:23:47;;;;;;;;;;;25.70;53.50;;;;;;1589252;73;812;-73
2021/08/13 06:25:49;;;;;;;;;;;25.70;53.50;;;;;;1596249;74;762;-72
2021/08/13 06:27:51;;;;;;;;;;;25.70;53.50;;;;;;1586734;73;711;-72
2021/08/13 06:29:53;;;;;;;;;;;25.70;53.50;;;;;;1577864;73;1153;-72
2021/08/13 06:31:55;;;;;;;;;;;25.70;53.60;;;;;;1599285;73;858;-73
2021/08/13 06:33:57;;;;;;;;;;;25.70;53.50;;;;;;1593825;73;779;-72
2021/08/13 06:35:59;;;;;;;;;;;25.70;53.50;;;;;;1591684;73;877;-72
2021/08/13 06:38:00;;;;;;;;;;;25.70;53.50;;;;;;1581703;73;1968;-72
2021/08/13 06:40:02;;;;;;;;;;;25.60;53.50;;;;;;1585164;74;1124;-72
2021/08/13 06:42:05;;;;;;;;;;;25.70;53.50;;;;;;1594225;73;725;-74
2021/08/13 06:44:07;;;;;;;;;;;25.70;53.50;;;;;;1590732;74;733;-73
2021/08/13 06:46:08;;;;;;;;;;;25.70;53.50;;;;;;1592785;73;723;-72
2021/08/13 06:48:10;;;;;;;;;;;25.70;53.40;;;;;;1587742;73;719;-71
2021/08/13 06:50:12;;;;;;;;;;;25.70;53.50;;;;;;1584847;73;1152;-73
2021/08/13 06:52:14;;;;;;;;;;;25.70;53.50;;;;;;1586337;73;845;-70
2021/08/13 06:54:16;;;;;;;;;;;25.70;53.50;;;;;;1589705;74;714;-73
2021/08/13 06:56:18;;;;;;;;;;;25.80;53.70;;;;;;1594013;73;784;-75
2021/08/13 06:58:20;;;;;;;;;;;25.90;53.90;;;;;;1582143;73;1946;-76
2021/08/13 07:00:22;;;;;;;;;;;25.90;53.90;;;;;;1583154;73;1181;-73
2021/08/13 07:02:24;;;;;;;;;;;25.90;53.70;;;;;;1585339;73;778;-72
2021/08/13 07:04:26;;;;;;;;;;;26.00;54.20;;;;;;1571538;73;876;-73
2021/08/13 07:06:27;;;;;;;;;;;26.00;54.20;;;;;;1589182;73;735;-73
2021/08/13 07:08:29;;;;;;;;;;;26.00;54.10;;;;;;1585009;73;685;-73
2021/08/13 07:10:31;;;;;;;;;;;26.10;54.30;;;;;;1588732;73;1127;-72
2021/08/13 07:12:34;;;;;;;;;;;26.10;54.40;;;;;;1583983;73;778;-74
2021/08/13 07:14:36;;;;;;;;;;;26.30;54.40;;;;;;1595531;73;740;-73
2021/08/13 07:16:38;;;;;;;;;;;26.20;54.40;;;;;;1591001;73;711;-72
2021/08/13 07:18:40;;;;;;;;;;;26.30;54.20;;;;;;1594474;73;1925;-73
2021/08/13 07:20:42;;;;;;;;;;;26.30;54.20;;;;;;1591454;73;1120;-72
2021/08/13 07:22:43;;;;;;;;;;;26.40;54.10;;;;;;1585380;73;735;-73
2021/08/13 07:24:45;;;;;;;;;;;26.40;53.80;;;;;;1593230;73;711;-72
2021/08/13 07:26:47;;;;;;;;;;;26.40;54.00;;;;;;1588023;73;783;-72
2021/08/13 07:28:49;;;;;;;;;;;26.50;53.60;;;;;;1597074;73;732;-73
2021/08/13 07:30:51;;;;;;;;;;;26.50;53.70;;;;;;1586723;73;1139;-72
2021/08/13 07:32:53;;;;;;;;;;;26.50;53.60;;;;;;1580973;73;713;-72
2021/08/13 07:34:55;;;;;;;;;;;26.50;53.50;;;;;;1576414;73;796;-70
2021/08/13 07:36:57;;;;;;;;;;;26.60;53.40;;;;;;1582163;73;786;-71
2021/08/13 07:38:58;;;;;;;;;;;26.60;53.20;;;;;;1577763;73;1946;-70
2021/08/13 07:41:00;;;;;;;;;;;26.60;53.10;;;;;;1587700;73;1141;-70
2021/08/13 07:43:02;;;;;;;;;;;26.60;53.10;;;;;;1581175;73;714;-70
2021/08/13 07:45:04;;;;;;;;;;;26.60;53.00;;;;;;1584601;73;722;-69
2021/08/13 07:47:06;;;;;;;;;;;26.70;52.80;;;;;;1598504;73;678;-71
2021/08/13 07:49:08;;;;;;;;;;;26.70;52.60;;;;;;1586609;73;706;-70
2021/08/13 07:51:10;;;;;;;;;;;26.80;52.40;;;;;;1591247;73;1169;-71
2021/08/13 07:53:12;;;;;;;;;;;26.70;52.30;;;;;;1593959;73;681;-70
2021/08/13 07:55:14;;;;;;;;;;;26.80;52.20;;;;;;1588810;73;715;-70
2021/08/13 07:57:16;;;;;;;;;;;26.80;52.00;;;;;;1592445;73;774;-69
2021/08/13 07:59:19;;;;;;;;;;;26.80;52.10;;;;;;1580718;73;1899;-72
2021/08/13 08:01:21;;;;;;;;;;;26.90;51.90;;;;;;1572998;73;729;-70
2021/08/13 08:03:23;;;;;;;;;;;26.90;51.90;;;;;;1577909;73;721;-72
2021/08/13 08:05:25;;;;;;;;;;;26.90;51.90;;;;;;1583736;73;887;-71
2021/08/13 08:07:27;;;;;;;;;;;26.90;51.80;;;;;;1580431;73;721;-70
2021/08/13 08:09:29;;;;;;;;;;;26.90;51.50;;;;;;1592230;73;1184;-71
2021/08/13 08:11:30;;;;;;;;;;;26.90;51.30;;;;;;1579858;74;791;-71
2021/08/13 08:13:32;;;;;;;;;;;26.90;51.40;;;;;;1579229;73;760;-70
2021/08/13 08:15:34;;;;;;;;;;;26.90;51.50;;;;;;1586179;73;798;-68
2021/08/13 08:17:36;;;;;;;;;;;26.90;51.50;;;;;;1579363;73;700;-71
2021/08/13 08:19:38;;;;;;;;;;;26.90;51.30;;;;;;1592723;74;1926;-71
2021/08/13 08:21:40;;;;;;;;;;;27.00;51.60;;;;;;1592407;73;696;-70
2021/08/13 08:23:42;;;;;;;;;;;26.90;50.80;;;;;;1588320;73;771;-71
2021/08/13 08:25:44;;;;;;;;;;;26.90;50.80;;;;;;1588863;74;748;-70
2021/08/13 08:27:46;;;;;;;;;;;26.90;50.80;;;;;;1590405;73;747;-70
2021/08/13 08:29:48;;;;;;;;;;;26.90;50.80;;;;;;1596108;74;1170;-69
2021/08/13 08:31:49;;;;;;;;;;;26.90;50.70;;;;;;1597436;74;931;-69
2021/08/13 08:33:51;;;;;;;;;;;27.00;51.20;;;;;;1608245;73;676;-69
2021/08/13 08:35:53;;;;;;;;;;;27.00;51.10;;;;;;1591669;74;692;-69
2021/08/13 08:37:56;;;;;;;;;;;27.00;51.10;;;;;;1579916;73;1957;-70
2021/08/13 08:39:58;;;;;;;;;;;27.00;51.10;;;;;;1590812;74;1161;-69
2021/08/13 08:42:00;;;;;;;;;;;27.00;51.00;;;;;;1593384;74;669;-69
2021/08/13 08:44:02;;;;;;;;;;;27.00;51.00;;;;;;1589483;73;770;-71
2021/08/13 08:46:03;;;;;;;;;;;27.00;51.00;;;;;;1586782;74;655;-69
2021/08/13 08:48:07;;;;;;;;;;;27.10;51.10;;;;;;1577135;73;794;-70
2021/08/13 08:50:09;;;;;;;;;;;27.00;51.10;;;;;;1593348;73;1796;-69
2021/08/13 08:52:11;;;;;;;;;;;27.10;51.10;;;;;;1580949;74;713;-70
2021/08/13 08:54:13;;;;;;;;;;;27.10;51.00;;;;;;1575995;74;629;-68
2021/08/13 08:56:16;;;;;;;;;;;27.10;51.10;;;;;;1584474;74;729;-71
2021/08/13 08:58:18;;;;;;;;;;;27.00;51.30;;;;;;1583344;73;1927;-70
2021/08/13 09:00:20;;;;;;;;;;;27.10;51.20;;;;;;1586426;73;1220;-70
2021/08/13 09:02:22;;;;;;;;;;;27.10;51.10;;;;;;1585299;73;896;-70
2021/08/13 09:04:23;;;;;;;;;;;27.10;51.00;;;;;;1587038;73;706;-70
2021/08/13 09:06:25;;;;;;;;;;;27.10;50.80;;;;;;1575559;73;797;-70
2021/08/13 09:08:28;;;;;;;;;;;27.10;50.70;;;;;;1574711;73;717;-69
2021/08/13 09:10:30;;;;;;;;;;;27.10;50.80;;;;;;1577092;73;1134;-70
2021/08/13 09:12:34;;;;;;;;;;;27.10;50.80;;;;;;1578693;73;734;-71
2021/08/13 09:14:37;;;;;;;;;;;27.10;50.90;;;;;;1578256;73;981;-70
2021/08/13 09:16:40;;;;;;;;;;;27.10;50.70;;;;;;1571118;73;656;-71
2021/08/13 09:18:43;;;;;;;;;;;27.20;50.90;;;;;;1589206;74;1896;-71
2021/08/13 09:20:48;;;;;;;;;;;27.10;50.70;;;;;;1584818;74;1124;-69
2021/08/13 09:22:50;;;;;;;;;;;27.10;50.70;;;;;;1572702;74;739;-71
2021/08/13 09:24:53;;;;;;;;;;;27.10;50.80;;;;;;1585112;73;893;-70
2021/08/13 09:26:55;;;;;;;;;;;27.10;50.60;;;;;;1590056;73;783;-70
2021/08/13 09:28:58;;;;;;;;;;;27.10;50.50;;;;;;1567509;73;753;-70
2021/08/13 09:31:01;;;;;;;;;;;27.10;50.40;;;;;;1585736;73;1123;-71
2021/08/13 09:33:08;;;;;;;;;;;27.10;50.30;;;;;;1590881;73;1606;-70
2021/08/13 09:35:10;;;;;;;;;;;27.10;50.30;;;;;;1586826;73;707;-70
2021/08/13 09:37:13;;;;;;;;;;;27.10;50.30;;;;;;1577391;73;801;-71
2021/08/13 09:39:15;;;;;;;;;;;27.10;50.50;;;;;;1579556;73;2125;-69
2021/08/13 09:41:18;;;;;;;;;;;27.10;51.00;;;;;;1596954;73;707;-72
2021/08/13 09:43:20;;;;;;;;;;;27.10;51.00;;;;;;1591000;74;630;-71
2021/08/13 09:45:22;;;;;;;;;;;27.10;51.00;;;;;;1588029;74;729;-70
2021/08/13 09:47:24;;;;;;;;;;;27.10;50.80;;;;;;1589490;73;745;-71
2021/08/13 09:49:25;;;;;;;;;;;27.10;50.30;;;;;;1573543;74;1186;-71
2021/08/13 09:51:29;;;;;;;;;;;27.10;50.40;;;;;;1592540;73;779;-72
2021/08/13 09:53:31;;;;;;;;;;;27.20;51.00;;;;;;1596895;73;1475;-71
2021/08/13 09:55:33;;;;;;;;;;;27.10;50.70;;;;;;1582818;73;747;-71
2021/08/13 09:57:41;;;;;;;;;;;27.10;50.60;;;;;;1592007;73;793;-71
2021/08/13 09:59:59;;;;;;;;;;;27.10;50.40;;;;;;1576369;73;1954;-71
2021/08/13 10:02:03;;;;;;;;;;;27.10;50.60;;;;;;1584237;73;634;-71
2021/08/13 10:04:05;;;;;;;;;;;27.10;50.50;;;;;;1586347;73;1812;-72
2021/08/13 10:06:07;;;;;;;;;;;27.10;50.50;;;;;;1590275;73;671;-71
2021/08/13 10:08:09;;;;;;;;;;;27.10;50.50;;;;;;1594560;73;730;-71
2021/08/13 10:10:11;;;;;;;;;;;27.00;50.40;;;;;;1589121;73;1149;-71
2021/08/13 10:12:13;;;;;;;;;;;26.90;49.90;;;;;;1583537;73;739;-71
2021/08/13 10:14:15;;;;;;;;;;;27.00;50.90;;;;;;1577733;73;821;-72
2021/08/13 10:16:23;;;;;;;;;;;26.90;50.00;;;;;;1564550;74;757;-71
2021/08/13 10:18:25;;;;;;;;;;;27.00;50.80;;;;;;1582046;73;1939;-71
2021/08/13 10:20:28;;;;;;;;;;;26.90;50.30;;;;;;1587533;73;1124;-72
2021/08/13 10:22:30;;;;;;;;;;;26.90;50.40;;;;;;1590312;73;913;-70
2021/08/13 10:24:32;;;;;;;;;;;26.90;50.40;;;;;;1586329;73;739;-71
2021/08/13 10:26:34;;;;;;;;;;;26.90;50.30;;;;;;1587886;73;721;-72
2021/08/13 10:28:36;;;;;;;;;;;26.90;50.10;;;;;;1589483;73;719;-72
2021/08/13 10:30:38;;;;;;;;;;;26.90;50.00;;;;;;1583737;73;1128;-70
2021/08/13 10:32:39;;;;;;;;;;;26.90;50.00;;;;;;1597811;73;784;-71
2021/08/13 10:34:41;;;;;;;;;;;26.90;50.10;;;;;;1592471;73;698;-71
2021/08/13 10:36:43;;;;;;;;;;;26.90;50.00;;;;;;1588981;73;759;-71
2021/08/13 10:38:49;;;;;;;;;;;27.00;50.60;;;;;;1571574;74;1947;-70
2021/08/13 10:40:52;;;;;;;;;;;26.90;49.90;;;;;;1589043;73;1112;-71
2021/08/13 10:42:53;;;;;;;;;;;26.90;49.70;;;;;;1597140;73;586;-71
2021/08/13 10:44:57;;;;;;;;;;;26.90;49.70;;;;;;1591940;73;647;-71
2021/08/13 10:47:00;;;;;;;;;;;26.90;49.70;;;;;;1592960;73;757;-72
2021/08/13 10:49:02;;;;;;;;;;;26.90;49.70;;;;;;1586005;73;755;-71
2021/08/13 10:51:04;;;;;;;;;;;26.90;49.50;;;;;;1593571;73;1137;-71
2021/08/13 10:53:27;;;;;;;;;;;26.90;49.50;;;;;;1592065;73;746;-71
2021/08/13 10:55:47;;;;;;;;;;;26.90;49.50;;;;;;1586703;73;2076;-70
2021/08/13 10:57:50;;;;;;;;;;;26.90;49.50;;;;;;1587972;73;1657;-71
2021/08/13 10:59:55;;;;;;;;;;;26.80;49.40;;;;;;1592946;73;1933;-71
2021/08/13 11:02:14;;;;;;;;;;;26.90;49.50;;;;;;1596242;73;736;-71
2021/08/13 11:04:16;;;;;;;;;;;26.90;49.60;;;;;;1597382;73;720;-72
2021/08/13 11:06:18;;;;;;;;;;;26.80;49.50;;;;;;1581355;73;789;-72
2021/08/13 11:08:20;;;;;;;;;;;26.80;49.30;;;;;;1581273;74;927;-70
2021/08/13 11:10:24;;;;;;;;;;;26.80;49.10;;;;;;1596113;73;1163;-72
2021/08/13 11:12:26;;;;;;;;;;;26.70;49.10;;;;;;1574041;74;1408;-70
2021/08/13 11:14:28;;;;;;;;;;;26.70;49.50;;;;;;1594889;73;742;-71
2021/08/13 11:16:32;;;;;;;;;;;26.70;49.40;;;;;;1599445;73;798;-71
2021/08/13 11:18:36;;;;;;;;;;;26.80;49.20;;;;;;1592332;73;734;-71
2021/08/13 11:20:44;;;;;;;;;;;26.80;49.10;;;;;;1591593;73;2541;-71
2021/08/13 11:22:46;;;;;;;;;;;26.70;49.40;;;;;;1585729;74;744;-71
2021/08/13 11:24:51;;;;;;;;;;;26.70;49.30;;;;;;1593671;74;795;-71
2021/08/13 11:26:59;;;;;;;;;;;26.70;49.20;;;;;;1588116;73;786;-70
2021/08/13 11:29:00;;;;;;;;;;;26.80;48.90;;;;;;1589832;73;1151;-70
2021/08/13 11:31:02;;;;;;;;;;;26.80;48.60;;;;;;1580349;73;1127;-72
2021/08/13 11:33:22;;;;;;;;;;;26.70;48.90;;;;;;1599238;73;743;-71
2021/08/13 11:35:26;;;;;;;;;;;26.70;48.90;;;;;;1589545;73;731;-70
2021/08/13 11:37:38;;;;;;;;;;;26.70;48.30;;;;;;1597178;73;1829;-71
2021/08/13 11:39:40;;;;;;;;;;;26.70;48.40;;;;;;1596765;73;1937;-71
2021/08/13 11:41:42;;;;;;;;;;;26.70;48.40;;;;;;1594717;73;739;-70
2021/08/13 11:43:44;;;;;;;;;;;26.70;48.50;;;;;;1594340;74;770;-70
2021/08/13 11:45:47;;;;;;;;;;;26.70;48.50;;;;;;1593110;73;785;-71
2021/08/13 11:47:49;;;;;;;;;;;26.70;46.80;;;;;;1595723;73;811;-71
2021/08/13 11:49:51;;;;;;;;;;;26.60;47.50;;;;;;1589895;73;1105;-70
2021/08/13 11:51:53;;;;;;;;;;;26.60;48.10;;;;;;1594768;73;751;-71
2021/08/13 11:53:55;;;;;;;;;;;26.70;47.40;;;;;;1594386;73;785;-70
2021/08/13 11:55:57;;;;;;;;;;;26.60;48.00;;;;;;1592758;74;778;-71
2021/08/13 11:58:00;;;;;;;;;;;26.70;48.00;;;;;;1593364;73;780;-70
2021/08/13 12:00:03;;;;;;;;;;;26.70;47.60;;;;;;1575302;73;1942;-71
2021/08/13 12:02:05;;;;;;;;;;;26.60;47.00;;;;;;1594234;73;798;-71
2021/08/13 12:04:17;;;;;;;;;;;26.60;48.10;;;;;;1595981;73;759;-72
2021/08/13 12:06:19;;;;;;;;;;;26.70;48.20;;;;;;1594318;74;838;-71
2021/08/13 12:08:21;;;;;;;;;;;26.60;47.10;;;;;;1585351;73;672;-70
2021/08/13 12:10:23;;;;;;;;;;;26.50;46.80;;;;;;1593227;73;1117;-71